• Join FlightAware (Why Join?)
  • Login
  • US Flag 
09:48PM EDT


 

Airport Tracker/Info


-or-


 

Live Flight TrackerFlight Track Log ✈ LAN461 ✈ 24-May-2013 ✈ SCEL / SCL - SABE / AEP

Flight Track Log - Related Links

Times and Time Zones

All times are in EDT time to prevent confusion due to time zone crossing. See the LAN461 flight status page for this flight to view local times or setup timezone preferences in your user account.

Time Position Orientation Groundspeed Altitude Reporting Facility
EDT Latitude Longitude Course Direction KTS MPH feet Rate Location/Type
05:42PM -34.9880 -61.5940 92° East 467 537 35,000  Level FlightAware
05:43PM -34.9890 -61.5090 91° East 466 536 35,000  Level FlightAware
05:44PM -34.9940 -61.3510 92° East 465 535 35,000  Level FlightAware
05:45PM -34.9970 -61.2280 92° East 465 535 35,000  Level FlightAware
05:45PM -35.0000 -61.1240 92° East 465 535 35,000  Level FlightAware
05:46PM -35.0020 -61.0200 91° East 466 536 35,000  Level FlightAware
05:47PM -35.0050 -60.9030 92° East 467 537 35,000  Level FlightAware
05:47PM -35.0050 -60.8020 90° East 467 537 35,000  Level FlightAware
05:48PM -35.0080 -60.6910 92° East 468 539 35,000 -1,380 Level FlightAware
05:49PM -35.0110 -60.5700 92° East 466 536 33,100 -2,340 Descending FlightAware
05:49PM -35.0130 -60.4670 91° East 461 531 31,900 -1,920 Descending FlightAware
05:50PM -35.0150 -60.3410 91° East 454 522 30,300 -1,980 Descending FlightAware
05:51PM -35.0170 -60.2470 92° East 450 518 29,200 -1,860 Descending FlightAware
05:52PM -35.0190 -60.1330 91° East 443 510 27,800 -1,800 Descending FlightAware
05:52PM -35.0200 -60.0250 91° East 437 503 26,500 -1,920 Descending FlightAware
05:53PM -35.0220 -59.9270 91° East 432 497 25,200 -1,980 Descending FlightAware
05:54PM -35.0230 -59.8290 91° East 428 493 23,900 -1,980 Descending FlightAware
05:54PM -35.0240 -59.7250 91° East 423 487 22,500 -1,260 Descending FlightAware
05:56PM -35.0250 -59.5690 90° East 420 483 21,500 -1,980 Descending FlightAware
05:56PM -34.9950 -59.4590 72° East 418 481 18,800 -2,940 Descending FlightAware
05:57PM -34.9800 -59.3780 77° East 409 471 17,700 -1,920 Descending FlightAware
05:58PM -34.9630 -59.2810 78° East 399 459 16,300 -1,920 Descending FlightAware
05:58PM -34.9430 -59.1840 76° East 394 453 14,900 -1,740 Descending FlightAware
05:59PM -34.9120 -59.1320 54° Northeast 383 441 14,200 -1,620 Descending FlightAware
05:59PM -34.8600 -59.0960 30° Northeast 349 402 13,200 -2,160 Descending FlightAware
06:00PM -34.7960 -59.0540 28° Northeast 342 394 11,300 -2,220 Descending FlightAware
06:01PM -34.7460 -59.0230 27° Northeast 337 388 10,200 -1,620 Descending FlightAware
06:01PM -34.7060 -58.9990 26° Northeast 329 379 9,600 -1,440 Descending FlightAware
06:02PM -34.6690 -58.9760 27° Northeast 324 373 8,900 -1,320 Descending FlightAware
06:02PM -34.6320 -58.9530 27° Northeast 315 362 8,400 -1,080 Descending FlightAware
06:03PM -34.5960 -58.9300 28° Northeast 308 354 7,900 -1,200 Descending FlightAware
06:03PM -34.5800 -58.9210 25° Northeast 305 351 7,600 -1,080 Descending FlightAware
06:03PM -34.5470 -58.8990 29° Northeast 298 343 7,200 -1,080 Descending FlightAware
06:04PM -34.5110 -58.8780 26° Northeast 290 334 6,600 -1,200 Descending FlightAware
06:04PM -34.4790 -58.8580 27° Northeast 284 327 6,100 -1,020 Descending FlightAware
06:05PM -34.4460 -58.8380 27° Northeast 277 319 5,700 -960 Descending FlightAware
06:05PM -34.4130 -58.8170 28° Northeast 268 308 5,200 -780 Descending FlightAware
06:06PM -34.3820 -58.7980 27° Northeast 264 304 5,000 -240 Descending FlightAware
06:06PM -34.3550 -58.7810 27° Northeast 264 304 5,000  Level FlightAware
06:06PM -34.3420 -58.7630 49° Northeast 263 303 5,000 -240 Level FlightAware
06:07PM -34.3390 -58.7480 76° East 263 303 4,900 -900 Descending FlightAware
06:07PM -34.3550 -58.7110 118° Southeast 247 284 4,400 -1,260 Descending FlightAware
06:08PM -34.3790 -58.6830 136° Southeast 246 283 3,700 -1,260 Descending FlightAware
06:08PM -34.4020 -58.6540 134° Southeast 242 278 3,200 -1,020 Descending FlightAware
06:08PM -34.4190 -58.6300 131° Southeast 241 277 2,800 -960 Descending FlightAware
06:09PM -34.4390 -58.6020 131° Southeast 228 262 2,400 -660 Descending FlightAware
06:09PM -34.4510 -58.5850 131° Southeast 215 247 2,300 -180 Descending FlightAware
06:10PM -34.4710 -58.5650 140° Southeast 195 224 2,300 -360 Level FlightAware
06:10PM -34.4940 -58.5330 131° Southeast 166 191 1,900 -660 Descending FlightAware
06:11PM -34.5040 -58.5150 124° Southeast 149 171 1,600 -840 Descending FlightAware
06:11PM -34.5140 -58.4980 126° Southeast 132 152 1,200 -660 Descending FlightAware
06:11PM -34.5150 -58.4950 112° Southeast 131 151 1,200 -600 Level FlightAware
06:12PM -34.5280 -58.4710 123° Southeast 131 151 800 -840 Descending FlightAware
06:12PM -34.5370 -58.4550 124° Southeast 130 150 400 -780 Descending FlightAware
06:13PM -34.5470 -58.4380 126° Southeast 128 147 100 -360 Descending FlightAware
06:13PM -34.5550 -58.4240 125° Southeast 128 147 100  Level FlightAware
06:16PM -34.5500 -58.4167 90° East  Level FlightAware Approximate
06:17PM -34.5592 -58.4156 90° East  Level Estimated
06:18PM -34.5592 -58.4156 90° East  Level Estimated
06:19PM -34.5592 -58.4156 90° East  Level Estimated
06:20PM -34.5592 -58.4156 90° East  Level Estimated
06:21PM -34.5592 -58.4156 90° East  Level Estimated
06:22PM -34.5592 -58.4156 90° East  Level Estimated
06:23PM -34.5592 -58.4156 90° East  Level Estimated
06:24PM -34.5592 -58.4156 90° East  Level Estimated